Terminal Aerodrome Forecast
Issued by NWS Birmingham, AL

Home | Current Version | Previous Version | Text Only | Print | Product List | Glossary On
Versions: 1 2 3 4 5 6 7 8 9 10 11 12 13
487
FTUS44 KBMX 212333
TAFBHM
TAF
KBHM 212333Z 2200/2224 12009KT P6SM BKN070
     FM220700 12013KT P6SM VCSH OVC025
     FM221100 11013KT P6SM VCSH OVC012
     FM221400 12014G21KT 6SM SHRA OVC012
     FM221700 13013G21KT 5SM SHRA OVC010 PROB30 2218/2224 2SM TSRA
      BKN007 OVC012CB=

USA.gov is the U.S. government's official web portal to all federal, state and local government web resources and services.